Time;durP1;ratioP1;P1;durP2;ratioP2;P2;SDS_P1;SDS_P2;PMS_P1;PMS_P2;Temp;Humidity;BMP_temperature;BMP_pressure;BME280_temperature;BME280_humidity;BME280_pressure;Samples;Min_cycle;Max_cycle;Signal;HPM_P1;HPM_P2
2022/05/26 00:00:29;;;;;;;4.35;1.60;;;;;;;18.57;80.25;98645.13;4841105;28;20039;-59
2022/05/26 00:02:54;;;;;;;4.35;1.60;;;;;;;18.36;80.48;98618.91;4811492;28;22439;-59
2022/05/26 00:05:20;;;;;;;4.35;1.63;;;;;;;18.53;80.36;98658.91;4864021;28;20080;-60
2022/05/26 00:07:45;;;;;;;4.25;1.90;;;;;;;18.49;80.82;98650.56;4797110;28;20034;-59
2022/05/26 00:10:11;;;;;;;4.20;1.50;;;;;;;18.48;80.41;98637.59;4857915;28;20477;-59
2022/05/26 00:12:36;;;;;;;4.85;1.80;;;;;;;18.44;80.81;98647.69;4857813;28;20039;-58
2022/05/26 00:15:03;;;;;;;3.85;1.90;;;;;;;18.19;81.04;98610.50;4828482;28;20057;-59
2022/05/26 00:17:28;;;;;;;4.38;1.77;;;;;;;18.09;80.71;98591.63;4873868;28;20039;-58
2022/05/26 00:19:54;;;;;;;4.60;2.13;;;;;;;18.38;80.85;98638.78;4859193;28;20422;-59
2022/05/26 00:22:20;;;;;;;4.47;2.03;;;;;;;18.19;80.93;98613.13;4796298;28;20882;-59
2022/05/26 00:24:46;;;;;;;5.63;1.85;;;;;;;18.14;81.06;98602.38;4861814;28;20035;-59
2022/05/26 00:27:11;;;;;;;5.10;1.73;;;;;;;18.11;81.84;98598.31;4869393;28;20128;-61
2022/05/26 00:29:37;;;;;;;4.53;1.70;;;;;;;18.22;81.88;98624.09;4829884;28;20029;-56
2022/05/26 00:32:02;;;;;;;3.30;1.33;;;;;;;18.23;82.22;98638.06;4848322;28;20039;-57
2022/05/26 00:34:28;;;;;;;4.57;1.70;;;;;;;18.23;81.97;98643.31;4873570;28;20733;-58
2022/05/26 00:36:53;;;;;;;4.13;1.48;;;;;;;18.12;82.26;98635.97;4863820;28;20039;-57
2022/05/26 00:39:24;;;;;;;3.80;1.55;;;;;;;18.19;82.25;98640.25;4824386;28;20709;-59
2022/05/26 00:42:01;;;;;;;5.30;1.50;;;;;;;18.24;82.64;98637.06;4862456;28;20605;-59
2022/05/26 00:44:28;;;;;;;4.30;1.50;;;;;;;18.22;83.05;98641.72;4865080;28;20409;-60
2022/05/26 00:46:57;;;;;;;4.07;1.48;;;;;;;17.96;82.84;98611.59;4828819;28;20031;-59
2022/05/26 00:49:50;;;;;;;4.93;1.40;;;;;;;18.19;83.17;98632.38;4824593;28;20780;-57
2022/05/26 00:52:25;;;;;;;6.45;1.70;;;;;;;18.11;83.37;98640.44;4866593;28;20085;-58
2022/05/26 00:54:53;;;;;;;3.67;1.35;;;;;;;18.10;83.69;98630.09;4861432;28;20378;-59
2022/05/26 00:57:20;;;;;;;4.82;1.48;;;;;;;18.06;83.90;98635.72;4834049;28;20149;-59
2022/05/26 00:59:56;;;;;;;7.45;1.63;;;;;;;18.00;83.83;98633.88;4827185;28;20136;-58
2022/05/26 01:02:25;;;;;;;5.53;1.60;;;;;;;18.03;83.63;98637.94;4864227;28;20204;-59
2022/05/26 01:04:55;;;;;;;3.10;1.20;;;;;;;18.02;83.22;98636.31;4860032;28;20035;-58
2022/05/26 01:07:24;;;;;;;4.63;1.50;;;;;;;17.99;83.32;98629.59;4794328;28;20773;-57
2022/05/26 01:09:49;;;;;;;4.75;1.58;;;;;;;18.04;82.87;98634.31;4845679;28;20090;-55
2022/05/26 01:12:15;;;;;;;4.30;1.60;;;;;;;17.93;82.96;98619.88;4823458;28;20043;-58
2022/05/26 01:14:46;;;;;;;4.97;1.38;;;;;;;18.01;83.05;98632.06;4873605;28;20038;-58
2022/05/26 01:17:34;;;;;;;3.85;1.30;;;;;;;18.05;82.53;98636.75;4857413;28;20146;-59
2022/05/26 01:20:38;;;;;;;3.45;1.30;;;;;;;17.94;83.39;98636.44;4843662;28;20068;-57
2022/05/26 01:23:27;;;;;;;3.90;1.20;;;;;;;17.95;83.37;98632.81;4819473;28;20137;-57
2022/05/26 01:26:26;;;;;;;3.25;1.20;;;;;;;17.91;83.42;98634.22;4810407;28;20031;-59
2022/05/26 01:29:13;;;;;;;4.90;1.60;;;;;;;17.92;83.37;98626.13;4843558;28;20034;-56
2022/05/26 01:31:44;;;;;;;4.00;1.20;;;;;;;17.70;82.95;98595.59;4875302;28;20399;-59
2022/05/26 01:34:45;;;;;;;3.40;1.38;;;;;;;17.89;83.04;98630.94;4880032;28;20177;-58
2022/05/26 01:37:47;;;;;;;4.25;1.15;;;;;;;17.82;83.49;98636.94;4821476;28;20408;-59
2022/05/26 01:40:31;;;;;;;4.25;1.38;;;;;;;17.81;83.45;98639.75;4817573;28;20336;-59
2022/05/26 01:43:18;;;;;;;4.13;1.40;;;;;;;17.77;83.14;98641.97;4850896;28;20035;-58
2022/05/26 01:46:22;;;;;;;4.63;1.30;;;;;;;17.76;83.77;98640.34;4866720;28;20039;-59
2022/05/26 01:49:19;;;;;;;5.78;1.30;;;;;;;17.82;83.22;98642.22;4868459;28;20501;-59
2022/05/26 01:51:56;;;;;;;3.13;1.30;;;;;;;17.76;83.20;98644.78;4879134;28;20031;-58
2022/05/26 01:54:24;;;;;;;4.40;1.48;;;;;;;17.72;82.85;98646.97;4833443;28;20062;-59
2022/05/26 01:57:03;;;;;;;3.80;1.20;;;;;;;17.45;82.72;98596.81;4856806;28;22217;-57
2022/05/26 01:59:37;;;;;;;3.05;1.10;;;;;;;17.75;82.62;98645.78;4871998;28;20526;-58
2022/05/26 02:02:07;;;;;;;3.95;1.10;;;;;;;17.74;82.72;98647.63;4855207;28;20031;-59
2022/05/26 02:05:01;;;;;;;4.25;1.17;;;;;;;17.73;81.94;98647.81;4802838;28;20027;-57
2022/05/26 02:07:43;;;;;;;3.85;1.17;;;;;;;17.54;81.92;98607.19;4805833;28;20351;-59
2022/05/26 02:10:16;;;;;;;4.13;1.20;;;;;;;17.80;81.90;98638.97;4841807;28;20042;-59
2022/05/26 02:12:46;;;;;;;4.43;1.42;;;;;;;17.68;82.26;98645.72;4805379;28;21852;-59
2022/05/26 02:15:25;;;;;;;2.80;1.02;;;;;;;17.55;81.82;98625.41;4873952;28;20046;-59
2022/05/26 02:17:55;;;;;;;3.05;1.20;;;;;;;17.58;81.73;98635.53;4860174;28;20729;-58
2022/05/26 02:20:26;;;;;;;3.50;1.30;;;;;;;17.66;82.03;98645.09;4847648;28;20027;-58
2022/05/26 02:23:02;;;;;;;4.93;1.67;;;;;;;17.73;81.91;98645.97;4808216;28;20141;-59
2022/05/26 02:25:28;;;;;;;4.03;1.30;;;;;;;17.65;82.91;98651.34;4865623;28;20155;-59
2022/05/26 02:27:56;;;;;;;2.97;1.20;;;;;;;17.63;82.68;98641.06;4863604;28;20062;-59
2022/05/26 02:30:34;;;;;;;3.60;1.05;;;;;;;17.60;82.99;98643.25;4831338;28;20085;-58
2022/05/26 02:33:00;;;;;;;7.55;1.20;;;;;;;17.43;82.92;98621.63;4820198;28;20034;-59
2022/05/26 02:35:29;;;;;;;3.72;1.30;;;;;;;17.58;83.42;98647.88;4866812;28;20038;-60
2022/05/26 02:37:58;;;;;;;3.20;1.10;;;;;;;17.58;83.14;98642.63;4875593;28;20022;-59
2022/05/26 02:40:23;;;;;;;3.28;1.20;;;;;;;17.63;82.78;98653.38;4811467;28;20042;-58
2022/05/26 02:42:53;;;;;;;3.28;1.10;;;;;;;17.61;83.42;98655.38;4846100;28;20126;-58
2022/05/26 02:45:25;;;;;;;4.90;1.30;;;;;;;17.57;82.82;98660.19;4858951;28;20038;-58
2022/05/26 02:48:17;;;;;;;3.70;1.20;;;;;;;17.56;82.80;98669.09;4846324;28;20039;-57
2022/05/26 02:50:54;;;;;;;3.13;1.10;;;;;;;17.61;82.61;98668.53;4812480;28;20050;-58
2022/05/26 02:53:29;;;;;;;3.10;1.20;;;;;;;17.64;82.21;98655.00;4840135;28;20550;-58
2022/05/26 02:56:13;;;;;;;3.15;1.30;;;;;;;17.70;82.89;98672.66;4887952;28;20031;-58
2022/05/26 02:59:13;;;;;;;4.28;1.20;;;;;;;17.70;84.50;98670.00;4875965;28;20043;-56
2022/05/26 03:02:19;;;;;;;2.97;1.00;;;;;;;17.76;84.27;98674.53;4849184;28;20224;-58
2022/05/26 03:04:48;;;;;;;3.55;1.10;;;;;;;17.68;82.64;98656.25;4792849;28;20050;-58
2022/05/26 03:07:22;;;;;;;4.32;1.25;;;;;;;17.65;82.51;98659.25;4865805;28;20031;-58
2022/05/26 03:09:48;;;;;;;3.70;1.27;;;;;;;17.65;83.87;98669.75;4833968;28;20031;-60
2022/05/26 03:12:28;;;;;;;3.22;1.02;;;;;;;17.63;82.93;98671.78;4832480;28;20847;-57
2022/05/26 03:14:54;;;;;;;3.55;1.23;;;;;;;17.51;83.47;98674.09;4875521;28;20405;-61
2022/05/26 03:17:20;;;;;;;2.92;1.08;;;;;;;17.43;83.48;98677.66;4860745;28;20118;-59
2022/05/26 03:19:46;;;;;;;3.70;1.00;;;;;;;17.24;83.53;98641.50;4802080;28;20039;-57
2022/05/26 03:22:11;;;;;;;2.78;0.93;;;;;;;17.39;83.71;98680.84;4844946;28;20085;-58
2022/05/26 03:24:37;;;;;;;3.85;1.33;;;;;;;17.25;84.51;98679.91;4862161;28;20050;-57
2022/05/26 03:27:03;;;;;;;3.70;1.20;;;;;;;16.99;84.81;98636.56;4824129;28;20552;-55
2022/05/26 03:29:29;;;;;;;3.17;1.13;;;;;;;17.31;84.90;98686.22;4815093;28;20446;-59
2022/05/26 03:31:54;;;;;;;3.25;1.13;;;;;;;17.19;85.42;98678.81;4864408;28;20030;-57
2022/05/26 03:42:32;;;;;;;7.43;1.40;;;;;;;17.10;85.81;98674.66;4861658;28;20139;-58
2022/05/26 03:44:58;;;;;;;2.63;1.00;;;;;;;17.16;85.62;98678.38;4858955;28;20423;-59
2022/05/26 03:47:23;;;;;;;5.72;1.10;;;;;;;17.12;85.16;98683.19;4818281;28;20061;-56
2022/05/26 03:49:49;;;;;;;3.08;1.20;;;;;;;17.06;86.38;98690.00;4838569;28;20042;-60
2022/05/26 03:52:15;;;;;;;4.88;1.50;;;;;;;17.02;85.96;98683.47;4873758;28;20038;-59
2022/05/26 03:54:40;;;;;;;3.08;1.00;;;;;;;16.99;85.73;98683.84;4861888;28;20042;-56
2022/05/26 03:57:06;;;;;;;3.45;1.27;;;;;;;17.07;85.70;98690.81;4838968;28;20881;-55
2022/05/26 03:59:33;;;;;;;3.03;1.13;;;;;;;17.10;85.90;98698.31;4871433;28;20142;-60
2022/05/26 04:01:59;;;;;;;5.60;1.45;;;;;;;16.97;85.94;98685.84;4862074;28;20042;-59
2022/05/26 04:04:25;;;;;;;2.78;1.10;;;;;;;17.04;85.66;98693.81;4807455;28;20035;-57
2022/05/26 04:06:50;;;;;;;3.17;1.20;;;;;;;17.00;85.96;98688.09;4849383;28;25410;-57
2022/05/26 04:09:16;;;;;;;3.10;1.20;;;;;;;16.60;86.00;98640.31;4793915;28;20042;-62
2022/05/26 04:11:41;;;;;;;3.47;1.13;;;;;;;16.93;85.76;98691.66;4874799;28;20042;-58
2022/05/26 04:14:07;;;;;;;2.58;0.90;;;;;;;16.78;85.85;98671.44;4880722;28;20042;-59
2022/05/26 04:16:32;;;;;;;3.70;1.10;;;;;;;17.00;86.01;98705.69;4826278;28;20154;-56
2022/05/26 04:18:58;;;;;;;4.00;1.17;;;;;;;17.00;85.38;98700.44;4869522;28;20206;-58
2022/05/26 04:21:23;;;;;;;3.28;1.20;;;;;;;16.46;85.62;98634.09;4858848;28;21081;-59
2022/05/26 04:23:49;;;;;;;2.75;0.90;;;;;;;16.63;85.97;98666.22;4807432;28;20463;-54
2022/05/26 04:26:14;;;;;;;3.08;1.10;;;;;;;16.81;86.35;98701.78;4828174;28;20035;-57
2022/05/26 04:28:39;;;;;;;3.45;0.98;;;;;;;16.70;85.75;98674.16;4860776;28;20887;-55
2022/05/26 04:31:05;;;;;;;3.58;1.35;;;;;;;16.94;85.89;98719.53;4873981;28;20755;-59
2022/05/26 04:33:31;;;;;;;4.30;1.20;;;;;;;16.87;86.82;98720.28;4832108;28;20042;-59
2022/05/26 04:35:57;;;;;;;3.50;1.30;;;;;;;16.89;86.85;98722.72;4896993;28;20046;-63
2022/05/26 04:38:22;;;;;;;3.10;1.15;;;;;;;16.68;86.50;98682.25;4869497;28;20027;-58
2022/05/26 04:41:02;;;;;;;4.22;1.20;;;;;;;16.83;86.22;98731.31;4837928;28;20039;-55
2022/05/26 04:43:30;;;;;;;5.18;1.33;;;;;;;16.81;86.02;98733.28;4848815;28;20061;-59
2022/05/26 04:45:57;;;;;;;3.33;1.15;;;;;;;16.80;85.61;98721.16;4873826;28;20469;-57
2022/05/26 04:48:22;;;;;;;2.85;1.00;;;;;;;16.80;85.71;98727.22;4872898;28;20027;-58
2022/05/26 04:50:52;;;;;;;2.53;1.05;;;;;;;16.61;85.60;98693.63;4820288;28;20157;-57
2022/05/26 04:53:17;;;;;;;;;;;;;;;16.90;84.60;98734.84;4854730;28;20061;-59
2022/05/26 04:55:43;;;;;;;3.55;1.20;;;;;;;16.83;85.59;98729.53;4896263;28;20788;-57
2022/05/26 04:58:08;;;;;;;4.07;1.30;;;;;;;16.78;85.70;98731.84;4845615;28;20557;-57
2022/05/26 05:00:34;;;;;;;4.63;1.10;;;;;;;16.78;84.98;98731.84;4830858;28;20363;-59
2022/05/26 05:02:59;;;;;;;2.90;1.08;;;;;;;16.75;85.47;98740.06;4867957;28;20113;-59
2022/05/26 05:05:25;;;;;;;4.47;1.10;;;;;;;16.67;85.17;98725.22;4854371;28;20023;-56
2022/05/26 05:07:50;;;;;;;2.92;1.00;;;;;;;16.75;85.92;98739.28;4795071;28;20089;-60
2022/05/26 05:10:16;;;;;;;4.72;1.30;;;;;;;16.56;86.41;98696.00;4787346;28;21381;-60
2022/05/26 05:12:41;;;;;;;4.00;1.02;;;;;;;16.78;85.11;98738.91;4859630;28;20054;-56
2022/05/26 05:15:16;;;;;;;3.38;1.10;;;;;;;16.80;84.20;98734.28;4815354;28;21703;-58
2022/05/26 05:17:42;;;;;;;3.58;1.27;;;;;;;16.75;85.07;98734.81;4875849;28;20129;-57
2022/05/26 05:20:08;;;;;;;4.47;1.17;;;;;;;16.81;84.94;98734.13;4872149;28;20062;-63
2022/05/26 05:22:40;;;;;;;3.58;1.10;;;;;;;16.82;84.76;98740.16;4818393;28;20658;-55
2022/05/26 05:25:21;;;;;;;3.97;1.30;;;;;;;16.50;85.22;98693.09;4829735;28;20165;-58
2022/05/26 05:27:52;;;;;;;2.47;1.00;;;;;;;16.75;85.41;98747.94;4863658;28;20051;-57
2022/05/26 05:30:30;;;;;;;3.40;1.30;;;;;;;16.79;84.12;98743.97;4862106;28;20035;-57
2022/05/26 05:33:04;;;;;;;2.90;1.08;;;;;;;16.76;84.41;98749.59;4847733;28;20033;-58
2022/05/26 05:35:35;;;;;;;3.05;1.05;;;;;;;16.89;82.85;98749.78;4847228;28;20046;-59
2022/05/26 05:38:01;;;;;;;2.90;1.10;;;;;;;16.90;82.51;98740.09;4861310;28;20137;-57
2022/05/26 05:40:26;;;;;;;5.15;1.27;;;;;;;16.93;82.78;98750.25;4862852;28;20031;-58
2022/05/26 05:42:51;;;;;;;3.47;1.20;;;;;;;16.84;83.58;98752.16;4788428;28;20410;-57
2022/05/26 05:45:17;;;;;;;3.80;1.10;;;;;;;16.87;82.91;98750.97;4860203;28;20669;-57
2022/05/26 05:47:42;;;;;;;2.70;0.93;;;;;;;16.87;82.04;98749.16;4823189;28;20501;-58
2022/05/26 05:50:08;;;;;;;3.70;1.10;;;;;;;17.06;80.53;98755.66;4840823;28;20145;-58
2022/05/26 05:52:36;;;;;;;2.58;1.05;;;;;;;16.83;79.16;98710.31;4872399;28;20082;-61
2022/05/26 05:55:04;;;;;;;2.78;0.98;;;;;;;17.27;77.34;98757.53;4866812;28;20844;-60
2022/05/26 05:57:30;;;;;;;3.05;0.90;;;;;;;17.37;75.72;98770.38;4818219;28;20606;-60
2022/05/26 05:59:55;;;;;;;3.53;1.00;;;;;;;17.39;75.63;98771.00;4862123;28;20042;-59
2022/05/26 06:02:21;;;;;;;3.20;1.10;;;;;;;17.36;75.73;98775.81;4863151;28;20098;-59
2022/05/26 06:04:47;;;;;;;2.58;0.80;;;;;;;17.38;74.97;98779.91;4813588;28;20367;-57
2022/05/26 06:07:18;;;;;;;4.00;1.00;;;;;;;17.45;74.92;98778.19;4855172;28;20034;-59
2022/05/26 06:09:44;;;;;;;4.07;1.00;;;;;;;17.52;74.99;98782.69;4862909;28;20089;-60
2022/05/26 06:12:10;;;;;;;3.08;1.00;;;;;;;17.50;75.21;98785.50;4795837;28;20035;-58
2022/05/26 06:14:36;;;;;;;3.13;0.80;;;;;;;17.43;75.78;98787.22;4862739;28;24851;-57
2022/05/26 06:17:02;;;;;;;4.07;0.90;;;;;;;17.46;76.10;98784.25;4857873;28;20047;-61
2022/05/26 06:19:28;;;;;;;2.70;0.90;;;;;;;17.52;74.18;98803.72;4849246;28;20039;-57
2022/05/26 06:21:53;;;;;;;3.15;1.08;;;;;;;17.52;73.57;98798.47;4844194;28;20041;-61
2022/05/26 06:24:23;;;;;;;4.50;1.10;;;;;;;17.55;74.01;98801.53;4858777;28;20042;-58
2022/05/26 06:26:49;;;;;;;3.83;1.23;;;;;;;17.54;75.33;98801.72;4829024;28;20039;-57
2022/05/26 06:37:28;;;;;;;3.70;1.10;;;;;;;16.92;77.89;98759.13;4875715;28;20042;-60
2022/05/26 06:39:55;;;;;;;3.15;1.00;;;;;;;17.20;78.67;98818.91;4818093;28;22341;-55
2022/05/26 06:42:24;;;;;;;3.65;1.00;;;;;;;17.07;78.67;98783.56;4845646;28;20394;-59
2022/05/26 06:44:50;;;;;;;2.97;0.90;;;;;;;17.40;78.81;98821.78;4860307;28;20043;-60
2022/05/26 06:47:18;;;;;;;3.78;1.20;;;;;;;17.37;78.99;98827.41;4823053;28;20345;-52
2022/05/26 06:49:45;;;;;;;4.45;1.00;;;;;;;17.48;78.97;98834.81;4816153;28;25246;-59
2022/05/26 06:52:13;;;;;;;2.75;1.08;;;;;;;17.35;78.30;98832.84;4868675;28;20035;-59
2022/05/26 06:54:41;;;;;;;2.72;1.00;;;;;;;17.33;79.06;98836.66;4875355;28;20062;-59
2022/05/26 06:57:07;;;;;;;2.95;1.00;;;;;;;17.41;79.21;98840.00;4800893;28;20581;-59
2022/05/26 06:59:33;;;;;;;3.33;1.48;;;;;;;17.48;77.99;98838.25;4846475;28;20907;-58
2022/05/26 07:01:59;;;;;;;2.78;1.00;;;;;;;17.48;78.14;98842.69;4846527;28;20911;-58
2022/05/26 07:04:25;;;;;;;6.38;1.60;;;;;;;17.53;77.77;98842.16;4827466;28;20045;-61
2022/05/26 07:06:53;;;;;;;4.53;1.50;;;;;;;17.64;79.35;98842.50;4812767;28;20612;-58
2022/05/26 07:09:19;;;;;;;3.88;1.33;;;;;;;17.70;79.68;98846.19;4824427;28;20035;-56
2022/05/26 07:11:45;;;;;;;4.43;1.30;;;;;;;17.72;80.58;98843.38;4834387;28;20143;-60
2022/05/26 07:14:11;;;;;;;3.40;1.10;;;;;;;17.74;80.96;98849.28;4868231;28;20102;-59
2022/05/26 07:16:36;;;;;;;2.75;1.02;;;;;;;17.83;79.61;98862.13;4846850;28;20069;-60
2022/05/26 07:19:02;;;;;;;2.97;0.98;;;;;;;17.86;79.18;98859.16;4807152;28;20613;-56
2022/05/26 07:21:28;;;;;;;2.35;0.90;;;;;;;17.89;79.38;98863.25;4859133;28;20095;-59
2022/05/26 07:23:53;;;;;;;2.83;1.00;;;;;;;17.67;79.07;98830.81;4850768;28;20028;-59
2022/05/26 07:26:19;;;;;;;3.65;1.30;;;;;;;17.87;79.10;98865.25;4827575;28;20118;-56
2022/05/26 07:28:44;;;;;;;3.03;1.05;;;;;;;17.90;78.15;98878.00;4831515;28;20501;-60
2022/05/26 07:31:12;;;;;;;3.30;1.20;;;;;;;18.00;76.87;98883.00;4860332;28;20077;-58
2022/05/26 07:33:38;;;;;;;3.72;1.00;;;;;;;17.95;75.97;98878.28;4859648;28;20626;-56
2022/05/26 07:36:04;;;;;;;3.50;1.08;;;;;;;17.88;75.94;98873.94;4802121;28;20039;-59
2022/05/26 07:41:20;;;;;;;2.90;0.98;;;;;;;18.47;74.05;98875.53;4866510;28;21462;-61
2022/05/26 07:43:54;;;;;;;2.45;0.80;;;;;;;19.03;71.50;98878.22;4830940;28;20351;-57
2022/05/26 07:46:21;;;;;;;3.13;1.00;;;;;;;19.47;70.09;98881.53;4794716;28;22079;-59
2022/05/26 07:48:47;;;;;;;2.67;1.00;;;;;;;19.81;67.53;98887.78;4862435;28;20034;-59
2022/05/26 07:51:14;;;;;;;4.95;0.80;;;;;;;20.22;66.73;98889.50;4862655;28;20050;-59
2022/05/26 07:53:39;;;;;;;3.13;1.00;;;;;;;20.64;65.50;98883.06;4804062;28;20039;-58
2022/05/26 07:56:05;;;;;;;3.33;0.90;;;;;;;20.95;63.91;98886.13;4837184;28;20053;-60
2022/05/26 07:58:30;;;;;;;2.38;0.82;;;;;;;21.19;61.93;98892.59;4861739;28;20573;-60
2022/05/26 08:00:56;;;;;;;2.85;1.00;;;;;;;21.21;62.95;98890.53;4828295;28;20062;-61
2022/05/26 08:03:22;;;;;;;2.67;1.00;;;;;;;21.66;62.70;98888.00;4798501;28;20100;-61
2022/05/26 08:05:47;;;;;;;3.72;1.10;;;;;;;21.63;61.55;98889.25;4855339;28;20043;-58
2022/05/26 08:08:14;;;;;;;2.80;0.90;;;;;;;21.72;61.38;98884.50;4866356;28;20671;-61
2022/05/26 08:10:40;;;;;;;3.42;1.08;;;;;;;21.91;61.21;98888.09;4798627;28;20038;-58
2022/05/26 08:13:06;;;;;;;2.28;0.90;;;;;;;21.91;60.50;98882.00;4845115;28;20034;-58
2022/05/26 08:15:32;;;;;;;3.20;1.10;;;;;;;21.89;60.48;98880.38;4854950;28;21449;-59
2022/05/26 08:17:58;;;;;;;2.75;1.00;;;;;;;21.89;60.29;98883.00;4794627;28;20051;-59
2022/05/26 08:20:24;;;;;;;3.40;1.02;;;;;;;22.09;60.21;98890.03;4795337;28;21347;-60
2022/05/26 08:22:49;;;;;;;2.58;0.90;;;;;;;22.32;59.00;98891.34;4830205;28;20046;-62
2022/05/26 08:25:15;;;;;;;2.95;0.90;;;;;;;22.60;58.48;98859.16;4828934;28;20043;-61
2022/05/26 08:27:40;;;;;;;2.70;0.93;;;;;;;23.06;57.40;98884.47;4755405;28;20272;-58
2022/05/26 08:30:07;;;;;;;2.55;0.90;;;;;;;23.28;55.41;98863.63;4815690;28;20031;-60
2022/05/26 08:32:32;;;;;;;3.05;1.13;;;;;;;23.52;58.28;98891.09;4845868;28;20035;-63
2022/05/26 08:34:59;;;;;;;2.90;1.00;;;;;;;23.53;55.70;98883.94;4793664;28;20118;-57
2022/05/26 08:37:25;;;;;;;2.72;0.98;;;;;;;23.39;56.06;98892.06;4818095;28;20081;-59
2022/05/26 08:39:51;;;;;;;3.33;1.40;;;;;;;23.34;57.01;98861.91;4842984;28;20061;-60
2022/05/26 08:42:27;;;;;;;3.17;1.17;;;;;;;23.37;58.29;98888.03;4814228;28;20046;-60
2022/05/26 08:44:55;;;;;;;3.20;1.20;;;;;;;23.60;57.40;98898.78;4757000;28;20290;-59
2022/05/26 08:47:22;;;;;;;2.97;1.05;;;;;;;23.48;58.29;98891.78;4797174;28;20494;-61
2022/05/26 08:50:03;;;;;;;4.43;1.17;;;;;;;23.96;56.77;98896.31;4788439;28;20129;-61
2022/05/26 08:52:43;;;;;;;3.92;1.20;;;;;;;24.46;55.99;98897.84;4791345;28;20533;-63
2022/05/26 08:55:25;;;;;;;6.63;1.10;;;;;;;24.72;56.63;98899.31;4799678;28;21134;-65
2022/05/26 08:58:08;;;;;;;3.45;1.15;;;;;;;24.85;53.89;98890.31;4785664;28;20050;-63
2022/05/26 09:00:36;;;;;;;3.20;1.20;;;;;;;24.95;51.10;98866.56;4782175;28;20058;-65
2022/05/26 09:03:11;;;;;;;4.60;1.13;;;;;;;25.06;50.34;98859.63;4855829;28;20731;-65
2022/05/26 09:05:38;;;;;;;4.07;1.35;;;;;;;24.52;51.56;98876.50;4855171;28;20046;-65
2022/05/26 09:13:51;;;;;;;4.30;1.30;;;;;;;26.46;48.38;98865.53;4858217;28;21979;-64
2022/05/26 09:16:17;;;;;;;7.22;3.45;;;;;;;27.15;47.04;98898.31;4851770;28;20165;-63
2022/05/26 09:18:44;;;;;;;4.97;1.83;;;;;;;26.54;48.00;98869.66;4824740;28;20034;-59
2022/05/26 09:21:19;;;;;;;5.13;2.38;;;;;;;26.61;48.13;98899.69;4810011;28;20122;-61
2022/05/26 09:23:46;;;;;;;5.35;2.83;;;;;;;26.46;50.11;98902.84;4860375;28;20055;-64
2022/05/26 09:26:16;;;;;;;6.40;2.33;;;;;;;26.63;49.13;98891.41;4864265;28;20034;-64
2022/05/26 09:28:52;;;;;;;4.45;2.08;;;;;;;26.82;49.23;98851.97;4783873;28;20596;-60
2022/05/26 09:31:18;;;;;;;5.95;2.00;;;;;;;27.20;48.38;98906.41;4821493;28;21321;-60
2022/05/26 09:33:43;;;;;;;4.95;2.05;;;;;;;27.14;48.18;98902.03;4854560;28;20154;-66
2022/05/26 09:36:25;;;;;;;5.18;2.15;;;;;;;27.21;48.88;98895.44;4777423;28;21063;-62
2022/05/26 09:38:52;;;;;;;5.53;2.25;;;;;;;27.05;46.73;98885.63;4788943;28;20101;-63
2022/05/26 09:41:17;;;;;;;4.65;2.38;;;;;;;27.04;48.06;98908.84;4776379;28;20118;-61
2022/05/26 09:43:52;;;;;;;4.82;2.22;;;;;;;27.04;47.83;98906.16;4772836;28;20490;-60
2022/05/26 09:46:18;;;;;;;4.82;2.70;;;;;;;26.56;49.22;98907.56;4773297;28;20059;-63
2022/05/26 09:48:46;;;;;;;4.85;2.20;;;;;;;26.83;48.03;98913.06;4767773;28;20610;-62
2022/05/26 09:51:34;;;;;;;6.82;2.60;;;;;;;26.48;48.11;98902.59;4796456;28;20468;-62
2022/05/26 09:53:59;;;;;;;6.00;2.50;;;;;;;26.21;49.92;98900.56;4779653;28;20962;-61
2022/05/26 09:56:40;;;;;;;5.55;2.50;;;;;;;26.07;49.93;98901.91;4790164;28;20067;-62
2022/05/26 09:59:30;;;;;;;7.30;2.53;;;;;;;25.77;50.89;98902.91;4782892;28;22636;-63
2022/05/26 10:02:05;;;;;;;5.60;2.60;;;;;;;25.71;52.29;98906.53;4782740;28;20065;-62
2022/05/26 10:04:40;;;;;;;6.53;2.75;;;;;;;25.55;52.48;98910.72;4796633;28;20130;-60
2022/05/26 10:07:17;;;;;;;6.47;2.45;;;;;;;25.23;53.56;98911.09;4785597;28;20645;-62
2022/05/26 10:10:10;;;;;;;5.97;2.80;;;;;;;25.32;53.16;98916.91;4781613;28;20669;-61
2022/05/26 10:13:13;;;;;;;5.60;2.60;;;;;;;25.29;54.06;98915.50;4779776;28;20047;-62
2022/05/26 10:15:58;;;;;;;5.38;2.83;;;;;;;25.13;55.87;98882.44;4782411;28;20345;-63
2022/05/26 10:18:33;;;;;;;7.05;3.38;;;;;;;25.36;53.27;98910.09;4777211;28;20031;-62
2022/05/26 10:21:23;;;;;;;6.28;2.75;;;;;;;24.93;53.42;98906.72;4776709;28;20042;-63
2022/05/26 10:23:48;;;;;;;5.97;3.05;;;;;;;24.65;53.96;98902.06;4780345;28;20241;-63
2022/05/26 10:26:31;;;;;;;5.00;2.90;;;;;;;24.83;56.18;98914.47;4774384;28;20057;-61
2022/05/26 10:29:22;;;;;;;7.05;2.80;;;;;;;24.79;56.15;98910.66;4779285;28;20484;-64
2022/05/26 10:32:14;;;;;;;6.63;2.97;;;;;;;24.73;54.74;98906.22;4779174;28;24049;-62
2022/05/26 10:35:03;;;;;;;6.80;3.10;;;;;;;24.77;56.11;98909.25;4785602;28;20047;-64
2022/05/26 10:37:38;;;;;;;6.90;2.80;;;;;;;24.74;55.93;98895.38;4777738;28;20879;-62
2022/05/26 10:40:17;;;;;;;6.15;2.67;;;;;;;24.62;54.63;98883.09;4781467;28;24816;-63
2022/05/26 10:42:49;;;;;;;5.70;3.38;;;;;;;24.58;53.98;98880.09;4759524;28;20120;-62
2022/05/26 10:45:40;;;;;;;8.15;3.40;;;;;;;24.76;54.73;98911.09;4852608;28;20094;-61
2022/05/26 10:48:09;;;;;;;6.07;2.75;;;;;;;24.81;55.44;98897.94;4832994;28;22555;-62
2022/05/26 10:50:41;;;;;;;7.65;3.47;;;;;;;24.90;55.02;98898.41;4826509;28;20714;-60
2022/05/26 10:53:23;;;;;;;5.60;3.17;;;;;;;24.66;54.43;98873.63;4770915;28;20184;-63
2022/05/26 10:56:11;;;;;;;7.05;3.28;;;;;;;24.77;54.42;98899.44;4822624;28;20161;-62
2022/05/26 10:58:42;;;;;;;7.07;2.92;;;;;;;24.79;54.29;98893.88;4852073;28;20040;-60
2022/05/26 11:01:21;;;;;;;6.57;2.97;;;;;;;24.94;53.91;98894.25;4851187;28;20450;-60
2022/05/26 11:03:52;;;;;;;5.40;2.90;;;;;;;24.98;53.15;98897.25;4799577;28;21223;-58
2022/05/26 11:06:30;;;;;;;6.10;3.25;;;;;;;24.62;54.34;98854.66;4811818;28;20046;-61
2022/05/26 11:09:17;;;;;;;6.88;2.95;;;;;;;24.83;54.88;98860.47;4848913;28;20045;-60
2022/05/26 11:11:49;;;;;;;6.05;3.08;;;;;;;25.11;52.71;98897.78;4767462;28;20069;-62
2022/05/26 11:17:44;;;;;;;5.93;3.30;;;;;;;25.22;53.05;98890.84;4853826;28;20054;-61
2022/05/26 11:20:34;;;;;;;5.90;3.13;;;;;;;25.17;53.30;98895.25;4817430;28;20042;-61
2022/05/26 11:23:04;;;;;;;7.35;3.13;;;;;;;24.88;52.56;98869.38;4780083;28;20039;-61
2022/05/26 11:25:32;;;;;;;5.60;2.90;;;;;;;24.94;52.87;98873.75;4849139;28;20047;-62
2022/05/26 11:28:15;;;;;;;6.10;3.03;;;;;;;25.03;52.87;98876.88;4865551;28;20030;-61
2022/05/26 11:36:30;;;;;;;6.85;3.33;;;;;;;25.39;51.24;98877.69;4804057;28;20054;-63
2022/05/26 11:38:55;;;;;;;6.77;3.33;;;;;;;25.24;51.06;98856.06;4833909;28;20043;-60
2022/05/26 11:41:33;;;;;;;6.18;3.15;;;;;;;25.24;52.82;98864.84;4853547;28;22977;-57
2022/05/26 11:44:09;;;;;;;8.07;3.33;;;;;;;25.28;53.68;98866.00;4795995;28;20161;-62
2022/05/26 11:46:49;;;;;;;6.80;3.38;;;;;;;25.29;52.31;98864.94;4804736;28;20042;-62
2022/05/26 11:49:43;;;;;;;5.50;3.08;;;;;;;25.28;51.88;98858.03;4847618;28;20035;-62
2022/05/26 11:52:27;;;;;;;7.25;3.42;;;;;;;25.54;48.96;98853.22;4820016;28;20014;-61
2022/05/26 11:54:52;;;;;;;6.10;3.28;;;;;;;25.49;51.29;98856.56;4786495;28;20042;-60
2022/05/26 11:57:43;;;;;;;7.15;3.20;;;;;;;25.41;50.23;98817.03;4851513;28;20859;-60
2022/05/26 12:00:15;;;;;;;6.57;2.95;;;;;;;25.71;50.09;98847.94;4854183;28;20050;-62
2022/05/26 12:02:45;;;;;;;6.15;2.88;;;;;;;25.65;48.00;98847.03;4824601;28;20030;-59
2022/05/26 12:05:28;;;;;;;5.13;2.75;;;;;;;25.67;48.29;98839.63;4786509;28;20121;-64
2022/05/26 12:08:06;;;;;;;5.75;3.00;;;;;;;25.73;49.86;98837.06;4840115;28;20043;-61
2022/05/26 12:10:52;;;;;;;6.22;3.40;;;;;;;25.55;49.77;98800.78;4847631;28;20641;-62
2022/05/26 12:13:25;;;;;;;8.07;3.45;;;;;;;25.77;50.03;98830.19;4852211;28;20497;-61
2022/05/26 12:16:09;;;;;;;7.22;3.60;;;;;;;25.88;49.53;98824.00;4788866;28;20258;-58
2022/05/26 12:18:50;;;;;;;7.45;3.60;;;;;;;25.94;49.73;98820.44;4805410;28;20030;-61
2022/05/26 12:21:27;;;;;;;5.68;3.50;;;;;;;26.05;48.89;98819.56;4845420;28;20034;-62
2022/05/26 12:23:58;;;;;;;6.35;3.03;;;;;;;26.12;48.74;98821.25;4840560;28;20109;-60
2022/05/26 12:26:29;;;;;;;6.65;3.40;;;;;;;26.08;48.02;98821.75;4789647;28;20129;-60
2022/05/26 12:29:32;;;;;;;6.80;3.65;;;;;;;25.99;50.03;98815.16;4801062;28;20773;-60